Time;durP1;ratioP1;P1;durP2;ratioP2;P2;SDS_P1;SDS_P2;PMS_P1;PMS_P2;Temp;Humidity;BMP_temperature;BMP_pressure;BME280_temperature;BME280_humidity;BME280_pressure;Samples;Min_cycle;Max_cycle;Signal;HPM_P1;HPM_P2
2023/01/05 00:00:22;;;;;;;1.10;0.60;;;;;;;12.87;64.44;97892.19;5049333;28;20203;-72
2023/01/05 00:02:47;;;;;;;3.43;1.13;;;;;;;12.92;64.26;97889.94;5047369;28;20264;-72
2023/01/05 00:05:13;;;;;;;0.80;0.60;;;;;;;12.94;64.19;97893.25;5051043;28;20702;-72
2023/01/05 00:07:38;;;;;;;1.00;0.50;;;;;;;12.81;64.52;97895.44;5049725;28;20191;-72
2023/01/05 00:22:29;;;;;;;2.90;1.00;;;;;;;12.71;64.84;97885.81;5044162;28;20211;-72
2023/01/05 00:23:45;;;;;;;0.90;0.70;;;;;;;12.97;64.00;97871.91;5050510;28;20428;-71
2023/01/05 00:26:11;;;;;;;1.43;0.60;;;;;;;12.60;65.46;97859.75;5061464;28;20570;-71
2023/01/05 00:28:36;;;;;;;2.77;0.60;;;;;;;12.91;64.14;97869.88;5059992;28;20285;-70
2023/01/05 00:31:02;;;;;;;1.23;0.70;;;;;;;12.95;64.11;97879.13;5060293;28;20310;-71
2023/01/05 00:33:27;;;;;;;1.00;0.60;;;;;;;12.84;64.55;97872.28;5061210;28;20186;-72
2023/01/05 00:35:53;;;;;;;1.20;0.50;;;;;;;12.82;64.88;97876.03;5064386;28;20265;-71
2023/01/05 00:38:18;;;;;;;1.10;0.60;;;;;;;12.90;64.64;97871.69;5064232;28;20187;-72
2023/01/05 00:40:44;;;;;;;0.90;0.53;;;;;;;12.84;65.06;97872.28;5070327;28;20601;-72
2023/01/05 00:43:09;;;;;;;0.80;0.60;;;;;;;12.89;64.71;97869.19;5068574;28;20293;-71
2023/01/05 00:45:34;;;;;;;0.80;0.60;;;;;;;12.93;64.97;97874.97;5071801;28;20265;-72
2023/01/05 00:48:00;;;;;;;1.47;0.60;;;;;;;12.68;65.60;97877.38;5069784;28;20653;-71
2023/01/05 00:50:26;;;;;;;0.80;0.50;;;;;;;12.78;65.83;97861.53;5067690;28;20242;-71
2023/01/05 00:52:52;;;;;;;2.60;0.70;;;;;;;12.63;66.26;97866.50;5065677;28;20294;-71
2023/01/05 00:55:17;;;;;;;1.73;0.60;;;;;;;12.71;65.67;97870.03;5066976;28;20512;-71
2023/01/05 00:57:43;;;;;;;0.83;0.60;;;;;;;12.63;65.60;97867.31;5071772;28;20183;-70
2023/01/05 01:00:14;;;;;;;0.87;0.57;;;;;;;12.76;65.44;97861.69;5071535;28;20186;-70
2023/01/05 01:02:40;;;;;;;0.80;0.50;;;;;;;13.04;64.65;97861.63;5070407;28;20206;-71
2023/01/05 01:05:06;;;;;;;1.17;0.60;;;;;;;13.04;64.35;97866.88;5071647;28;20432;-70
2023/01/05 01:07:32;;;;;;;1.10;0.60;;;;;;;12.77;65.37;97860.72;5071430;28;20178;-72
2023/01/05 01:09:57;;;;;;;2.90;0.93;;;;;;;13.10;64.30;97861.00;5066716;28;20834;-72
2023/01/05 01:12:22;;;;;;;1.10;0.60;;;;;;;12.97;65.09;97866.66;5060092;28;20206;-71
2023/01/05 01:14:48;;;;;;;0.80;0.57;;;;;;;13.08;65.03;97872.66;5071330;28;20265;-71
2023/01/05 01:17:17;;;;;;;1.70;0.70;;;;;;;13.04;64.89;97878.22;5068023;28;20185;-72
2023/01/05 01:19:44;;;;;;;0.77;0.50;;;;;;;12.99;65.09;97884.91;5062878;28;20179;-71
2023/01/05 01:22:10;;;;;;;3.43;0.50;;;;;;;13.11;65.05;97872.31;5068829;28;20457;-71
2023/01/05 01:24:35;;;;;;;0.80;0.60;;;;;;;13.11;64.60;97873.16;5053022;28;20422;-71
2023/01/05 01:27:01;;;;;;;1.00;0.50;;;;;;;13.18;64.50;97886.56;5070065;28;20193;-71
2023/01/05 01:29:26;;;;;;;0.80;0.40;;;;;;;13.18;64.66;97878.66;5065141;28;20744;-71
2023/01/05 01:31:52;;;;;;;0.77;0.50;;;;;;;13.15;64.73;97871.06;5063906;28;20240;-70
2023/01/05 01:34:18;;;;;;;0.90;0.60;;;;;;;13.18;64.53;97858.41;5067995;28;20782;-71
2023/01/05 01:36:44;;;;;;;1.00;0.57;;;;;;;13.25;64.13;97855.19;5070721;28;20926;-70
2023/01/05 01:39:10;;;;;;;0.80;0.50;;;;;;;13.10;64.79;97862.81;5062150;28;20420;-71
2023/01/05 01:41:35;;;;;;;0.80;0.50;;;;;;;13.17;64.43;97866.47;5067333;28;20262;-72
2023/01/05 01:44:01;;;;;;;1.13;0.50;;;;;;;13.12;64.79;97859.03;5070639;28;20425;-71
2023/01/05 01:46:27;;;;;;;0.97;0.50;;;;;;;13.18;64.55;97847.88;5067962;28;20186;-71
2023/01/05 01:48:55;;;;;;;0.80;0.50;;;;;;;13.16;64.55;97834.06;5080370;28;20207;-71
2023/01/05 01:51:29;;;;;;;0.80;0.50;;;;;;;13.15;64.89;97836.84;5065951;28;20437;-71
2023/01/05 01:53:57;;;;;;;1.03;0.60;;;;;;;13.15;64.81;97842.09;5062855;28;20425;-73
2023/01/05 01:56:24;;;;;;;0.80;0.50;;;;;;;13.15;64.97;97837.69;5069672;28;20459;-71
2023/01/05 01:58:50;;;;;;;0.77;0.50;;;;;;;13.17;64.59;97834.88;5071309;28;21058;-71
2023/01/05 02:01:15;;;;;;;0.80;0.50;;;;;;;13.16;64.92;97827.97;5069700;28;21136;-71
2023/01/05 02:03:41;;;;;;;0.80;0.50;;;;;;;13.22;64.54;97832.63;5066155;28;20424;-71
2023/01/05 02:06:07;;;;;;;0.80;0.60;;;;;;;13.25;64.53;97845.47;5067861;28;20198;-71
2023/01/05 02:08:33;;;;;;;1.00;0.50;;;;;;;13.13;65.07;97859.84;5052443;28;20248;-71
2023/01/05 02:11:09;;;;;;;0.80;0.60;;;;;;;13.20;64.90;97839.84;5064719;28;20186;-70
2023/01/05 02:14:05;;;;;;;0.90;0.60;;;;;;;13.27;64.55;97840.88;5054055;28;20482;-70
2023/01/05 02:16:44;;;;;;;0.90;0.50;;;;;;;13.29;64.59;97841.56;5066471;28;20487;-70
2023/01/05 02:19:09;;;;;;;1.10;0.50;;;;;;;13.23;65.02;97839.56;5070097;28;20470;-72
2023/01/05 02:21:53;;;;;;;0.90;0.70;;;;;;;13.32;64.91;97840.41;5068449;28;20437;-70
2023/01/05 02:24:41;;;;;;;0.83;0.60;;;;;;;13.25;65.05;97837.56;5068348;28;20201;-71
2023/01/05 02:27:44;;;;;;;0.80;0.50;;;;;;;13.25;65.02;97842.84;5069986;28;20486;-70
2023/01/05 02:30:40;;;;;;;0.80;0.47;;;;;;;13.36;64.75;97837.31;5061181;28;20461;-71
2023/01/05 02:33:24;;;;;;;0.80;0.50;;;;;;;13.38;64.81;97829.28;5062672;28;20562;-70
2023/01/05 02:35:53;;;;;;;0.80;0.50;;;;;;;13.26;65.16;97827.88;5055554;28;20436;-70
2023/01/05 02:38:30;;;;;;;1.17;0.50;;;;;;;13.29;65.10;97825.75;5073784;28;20466;-71
2023/01/05 02:40:59;;;;;;;0.90;0.50;;;;;;;13.25;65.51;97815.69;5061601;28;20435;-71
2023/01/05 02:43:26;;;;;;;0.80;0.50;;;;;;;13.34;64.97;97820.03;5072264;28;20424;-71
2023/01/05 02:45:51;;;;;;;0.80;0.50;;;;;;;13.36;65.06;97815.44;5068922;28;20428;-71
2023/01/05 02:48:17;;;;;;;1.00;0.60;;;;;;;13.40;65.14;97821.25;5069843;28;21021;-70
2023/01/05 02:51:00;;;;;;;0.80;0.50;;;;;;;13.41;64.97;97829.00;5070653;28;20545;-71
2023/01/05 02:53:26;;;;;;;1.77;0.50;;;;;;;13.39;65.40;97823.03;5063464;28;20270;-71
2023/01/05 02:56:08;;;;;;;1.00;0.60;;;;;;;13.39;64.92;97823.03;5072882;28;20421;-71
2023/01/05 02:58:56;;;;;;;0.80;0.50;;;;;;;13.27;65.46;97816.38;5058526;28;20839;-70
2023/01/05 03:01:43;;;;;;;0.80;0.50;;;;;;;13.35;65.46;97817.25;5069394;28;20448;-70
2023/01/05 03:04:13;;;;;;;1.83;0.63;;;;;;;13.34;65.38;97814.75;5072219;28;20462;-71
2023/01/05 03:06:45;;;;;;;0.80;0.50;;;;;;;13.39;65.28;97819.56;5072558;28;20424;-70
2023/01/05 03:09:12;;;;;;;0.87;0.60;;;;;;;13.24;65.90;97820.13;5073517;28;20456;-71
2023/01/05 03:14:36;;;;;;;0.77;0.40;;;;;;;13.43;65.51;97819.13;5073550;28;20434;-71
2023/01/05 03:17:03;;;;;;;1.97;0.50;;;;;;;13.46;64.97;97820.63;5069951;28;20885;-71
2023/01/05 03:19:35;;;;;;;0.80;0.50;;;;;;;13.38;65.63;97826.66;5072201;28;20496;-71
2023/01/05 03:37:21;;;;;;;2.03;0.53;;;;;;;13.48;65.99;97819.50;5066404;28;20419;-70
2023/01/05 03:39:47;;;;;;;1.30;0.63;;;;;;;13.50;65.61;97825.44;5054159;28;20425;-71
2023/01/05 03:42:13;;;;;;;1.20;0.80;;;;;;;13.44;65.79;97819.97;5069435;28;20969;-71
2023/01/05 03:44:40;;;;;;;0.70;0.40;;;;;;;13.40;66.19;97821.25;5083321;28;20191;-72
2023/01/05 03:47:05;;;;;;;1.20;0.50;;;;;;;13.47;65.75;97811.75;5077237;28;20482;-71
2023/01/05 03:49:31;;;;;;;1.10;0.50;;;;;;;13.57;65.31;97814.25;5039329;28;20468;-71
2023/01/05 03:51:56;;;;;;;0.90;0.50;;;;;;;13.51;65.57;97815.72;5072164;28;20297;-72
2023/01/05 03:54:22;;;;;;;0.80;0.50;;;;;;;13.54;65.55;97812.78;5069480;28;20235;-72
2023/01/05 03:56:47;;;;;;;1.30;0.50;;;;;;;13.55;65.48;97806.53;5073432;28;20265;-71
2023/01/05 03:59:13;;;;;;;0.90;0.50;;;;;;;13.68;65.03;97803.44;5072635;28;20179;-71
2023/01/05 04:01:38;;;;;;;0.80;0.40;;;;;;;13.66;65.03;97810.72;5070754;28;20297;-71
2023/01/05 04:04:04;;;;;;;0.80;0.50;;;;;;;13.66;64.90;97808.06;5066698;28;20236;-71
2023/01/05 04:06:29;;;;;;;2.50;0.50;;;;;;;13.71;64.95;97804.97;5046076;28;20770;-70
2023/01/05 04:08:55;;;;;;;1.00;0.40;;;;;;;13.65;64.91;97815.13;5072074;28;20210;-71
2023/01/05 04:11:21;;;;;;;1.00;0.40;;;;;;;13.76;64.71;97814.06;5071615;28;20231;-70
2023/01/05 04:13:47;;;;;;;0.80;0.50;;;;;;;13.79;64.34;97813.75;5081076;28;20191;-70
2023/01/05 04:16:12;;;;;;;1.00;0.50;;;;;;;13.80;64.30;97814.56;5060112;28;20449;-70
2023/01/05 04:18:38;;;;;;;0.80;0.50;;;;;;;13.75;64.48;97811.56;5053655;28;20187;-70
2023/01/05 04:21:04;;;;;;;1.00;0.50;;;;;;;13.80;64.62;97819.81;5070871;28;20191;-71
2023/01/05 04:23:30;;;;;;;1.00;0.50;;;;;;;13.84;64.40;97813.25;5066901;28;20182;-71
2023/01/05 04:25:55;;;;;;;0.80;0.50;;;;;;;13.80;64.19;97817.19;5072221;28;20431;-71
2023/01/05 04:28:20;;;;;;;0.80;0.50;;;;;;;13.77;64.37;97813.06;5061658;28;20652;-72
2023/01/05 04:30:50;;;;;;;0.80;0.50;;;;;;;13.87;64.18;97817.38;5065702;28;20540;-72
2023/01/05 04:33:16;;;;;;;1.53;0.50;;;;;;;13.76;64.33;97810.56;5059685;28;20203;-72
2023/01/05 04:35:42;;;;;;;0.80;0.40;;;;;;;13.93;64.00;97819.38;5072028;28;20428;-72
2023/01/05 04:38:07;;;;;;;0.70;0.40;;;;;;;13.88;64.30;97814.56;5054164;28;20183;-70
2023/01/05 04:40:32;;;;;;;0.70;0.40;;;;;;;13.92;64.16;97813.28;5070667;28;20190;-71
2023/01/05 04:42:58;;;;;;;0.70;0.47;;;;;;;13.92;64.18;97817.75;5066912;28;20230;-70
2023/01/05 04:45:23;;;;;;;0.73;0.40;;;;;;;13.91;64.18;97822.16;5071127;28;20315;-69
2023/01/05 04:47:50;;;;;;;0.80;0.50;;;;;;;13.90;64.13;97815.25;5064747;28;20646;-70
2023/01/05 04:50:16;;;;;;;1.10;0.40;;;;;;;13.80;64.88;97825.09;5068792;28;20235;-70
2023/01/05 04:52:41;;;;;;;0.70;0.40;;;;;;;13.88;65.07;97811.94;5064705;28;20524;-70
2023/01/05 04:55:07;;;;;;;1.63;0.50;;;;;;;13.90;64.71;97819.72;5060032;28;20270;-69
2023/01/05 04:57:33;;;;;;;1.00;0.40;;;;;;;13.80;64.92;97825.91;5070744;28;20189;-70
2023/01/05 04:59:59;;;;;;;1.20;0.90;;;;;;;13.86;64.61;97818.38;5071360;28;20185;-70
2023/01/05 05:02:25;;;;;;;0.80;0.50;;;;;;;13.89;64.64;97825.97;5070850;28;20213;-70
2023/01/05 05:04:51;;;;;;;0.70;0.40;;;;;;;13.89;64.94;97826.78;5066589;28;20430;-70
2023/01/05 05:07:16;;;;;;;1.00;0.50;;;;;;;13.80;65.25;97823.25;5065936;28;20440;-70
2023/01/05 05:09:42;;;;;;;1.00;0.50;;;;;;;13.82;64.95;97820.50;5061441;28;20241;-70
2023/01/05 05:12:07;;;;;;;1.00;0.50;;;;;;;13.72;65.57;97832.97;5060922;28;20316;-69
2023/01/05 05:14:33;;;;;;;1.90;0.40;;;;;;;13.85;65.19;97830.72;5065066;28;20187;-69
2023/01/05 05:16:58;;;;;;;1.87;0.80;;;;;;;13.91;64.95;97827.44;5063175;28;20555;-71
2023/01/05 05:19:23;;;;;;;0.80;0.50;;;;;;;13.95;65.11;97838.47;5066369;28;20232;-71
2023/01/05 05:21:49;;;;;;;1.23;0.40;;;;;;;13.97;65.00;97847.06;5070783;28;20213;-71
2023/01/05 05:24:14;;;;;;;0.90;0.50;;;;;;;13.93;65.25;97846.56;5069370;28;20520;-69
2023/01/05 05:26:40;;;;;;;1.53;0.50;;;;;;;13.96;65.20;97851.53;5070156;28;20261;-69
2023/01/05 05:29:05;;;;;;;0.80;0.50;;;;;;;13.97;65.18;97853.19;5070650;28;20299;-71
2023/01/05 05:31:31;;;;;;;0.80;0.50;;;;;;;13.98;65.28;97860.09;5064449;28;20221;-71
2023/01/05 05:33:56;;;;;;;0.70;0.40;;;;;;;14.01;65.57;97861.59;5057616;28;20236;-70
2023/01/05 05:36:22;;;;;;;0.90;0.60;;;;;;;13.99;65.66;97855.63;5057771;28;20266;-71
2023/01/05 05:38:47;;;;;;;0.80;0.43;;;;;;;14.01;65.75;97873.91;5065576;28;20210;-70
2023/01/05 05:41:13;;;;;;;1.30;0.60;;;;;;;14.02;66.12;97865.03;5064056;28;20187;-71
2023/01/05 05:43:38;;;;;;;0.80;0.60;;;;;;;14.05;65.99;97872.63;5053308;28;20266;-71
2023/01/05 05:46:04;;;;;;;0.77;0.50;;;;;;;14.03;66.09;97871.94;5069192;28;20186;-70
2023/01/05 05:48:29;;;;;;;0.80;0.50;;;;;;;14.05;66.14;97877.91;5069144;28;20208;-71
2023/01/05 05:50:55;;;;;;;1.40;0.50;;;;;;;14.04;66.34;97879.72;5070249;28;20253;-71
2023/01/05 05:53:20;;;;;;;0.80;0.50;;;;;;;14.05;66.39;97877.91;5058079;28;20333;-71
2023/01/05 05:55:49;;;;;;;0.80;0.50;;;;;;;14.05;66.83;97885.81;5070898;28;20190;-70
2023/01/05 05:58:16;;;;;;;1.47;0.50;;;;;;;14.04;67.02;97894.69;5047607;28;20179;-71
2023/01/05 06:00:42;;;;;;;1.20;0.80;;;;;;;14.06;67.13;97893.53;5067750;28;20431;-71
2023/01/05 06:03:07;;;;;;;1.47;0.70;;;;;;;13.98;67.95;97898.78;5065425;28;20552;-69
2023/01/05 06:05:33;;;;;;;2.27;0.60;;;;;;;13.93;68.38;97899.25;5062384;28;20240;-71
2023/01/05 06:07:58;;;;;;;1.17;0.70;;;;;;;13.94;68.49;97908.81;5048245;28;20245;-71
2023/01/05 06:10:24;;;;;;;1.07;0.63;;;;;;;13.92;68.70;97907.34;5051320;28;20201;-71
2023/01/05 06:12:52;;;;;;;0.80;0.50;;;;;;;13.91;68.93;97914.41;5058499;28;20190;-71
2023/01/05 06:15:17;;;;;;;1.00;0.60;;;;;;;13.92;69.09;97918.69;5050415;28;20626;-71
2023/01/05 06:17:44;;;;;;;0.80;0.57;;;;;;;13.95;68.94;97922.81;5054614;28;20420;-70
2023/01/05 06:20:10;;;;;;;1.33;0.70;;;;;;;13.92;69.02;97923.16;5043229;28;20533;-73
2023/01/05 06:22:35;;;;;;;1.93;0.90;;;;;;;13.89;69.54;97932.16;5052057;28;20540;-70
2023/01/05 06:25:01;;;;;;;0.83;0.60;;;;;;;13.89;69.40;97940.06;5060901;28;20657;-70
2023/01/05 06:27:26;;;;;;;4.50;0.73;;;;;;;13.92;69.65;97944.22;5050904;28;20276;-69
2023/01/05 06:29:52;;;;;;;1.00;0.80;;;;;;;13.93;69.51;97940.56;5058695;28;20289;-72
2023/01/05 06:32:17;;;;;;;4.53;0.80;;;;;;;13.90;69.52;97952.25;5052631;28;20293;-70
2023/01/05 06:34:42;;;;;;;1.00;0.90;;;;;;;13.87;69.70;97949.94;5055470;28;20231;-70
2023/01/05 06:37:08;;;;;;;0.80;0.53;;;;;;;13.85;69.74;97946.66;5061541;28;20564;-71
2023/01/05 06:39:33;;;;;;;1.20;0.67;;;;;;;13.86;69.71;97950.09;5053182;28;20240;-71
2023/01/05 06:41:59;;;;;;;1.30;1.20;;;;;;;13.84;69.57;97960.81;5061257;28;20285;-72
2023/01/05 06:44:24;;;;;;;2.20;0.60;;;;;;;13.81;69.55;97963.75;5051155;28;20186;-71
2023/01/05 06:46:50;;;;;;;0.80;0.60;;;;;;;13.81;69.18;97961.09;5057735;28;20174;-71
2023/01/05 06:49:15;;;;;;;0.97;0.63;;;;;;;13.75;69.01;97973.09;5052402;28;20236;-71
2023/01/05 06:51:41;;;;;;;1.83;0.60;;;;;;;13.76;69.00;97973.91;5055221;28;20202;-71
2023/01/05 06:54:06;;;;;;;0.90;0.50;;;;;;;13.77;69.13;97972.94;5043525;28;20316;-71
2023/01/05 06:56:31;;;;;;;1.20;0.70;;;;;;;13.75;68.62;97977.50;5050835;28;20210;-71
2023/01/05 06:58:57;;;;;;;1.00;0.90;;;;;;;13.70;68.64;97979.78;5056833;28;20186;-71
2023/01/05 07:01:22;;;;;;;1.10;0.70;;;;;;;13.70;68.51;97977.97;5056707;28;20216;-72
2023/01/05 07:03:48;;;;;;;3.47;0.73;;;;;;;13.62;68.13;97991.09;5058140;28;20215;-71
2023/01/05 07:06:14;;;;;;;1.60;0.80;;;;;;;13.61;68.31;97990.25;5048782;28;20262;-71
2023/01/05 07:08:40;;;;;;;2.50;0.90;;;;;;;13.59;68.25;97997.50;5054023;28;20319;-72
2023/01/05 07:11:05;;;;;;;2.70;0.90;;;;;;;13.60;68.35;97993.06;5054030;28;20923;-71
2023/01/05 07:13:30;;;;;;;1.87;0.80;;;;;;;13.56;68.10;97994.31;5049601;28;20199;-72
2023/01/05 07:15:56;;;;;;;3.20;1.00;;;;;;;13.57;68.00;97998.63;5050255;28;20262;-71
2023/01/05 07:18:21;;;;;;;1.60;0.83;;;;;;;13.56;67.94;98002.22;5048894;28;20228;-72
2023/01/05 07:20:47;;;;;;;1.60;1.10;;;;;;;13.58;68.12;98003.75;5053331;28;20183;-70
2023/01/05 07:23:12;;;;;;;3.13;1.40;;;;;;;13.56;67.67;98002.22;5043407;28;20686;-72
2023/01/05 07:25:38;;;;;;;1.13;1.03;;;;;;;13.58;67.47;98002.91;5052932;28;20183;-71
2023/01/05 07:28:03;;;;;;;1.83;0.80;;;;;;;13.54;67.49;97999.75;5053023;28;20301;-71
2023/01/05 07:30:29;;;;;;;2.23;0.90;;;;;;;13.58;67.25;98001.13;5042346;28;20213;-72
2023/01/05 07:32:57;;;;;;;1.67;0.80;;;;;;;13.55;66.93;98001.41;5039362;28;20258;-72
2023/01/05 07:35:23;;;;;;;1.70;0.77;;;;;;;13.58;66.95;98005.53;5035140;28;20538;-72
2023/01/05 07:37:48;;;;;;;1.20;0.73;;;;;;;13.54;66.98;98007.66;5048043;28;20468;-72
2023/01/05 07:40:14;;;;;;;3.63;0.80;;;;;;;13.56;67.05;98015.38;5047676;28;20262;-72
2023/01/05 07:42:39;;;;;;;4.17;1.03;;;;;;;13.55;66.47;98009.31;5045810;28;20624;-71
2023/01/05 07:45:05;;;;;;;2.93;0.90;;;;;;;13.54;66.40;98007.66;5050222;28;20210;-71
2023/01/05 07:47:31;;;;;;;4.40;1.13;;;;;;;13.55;66.57;98017.22;5049202;28;20190;-72
2023/01/05 07:49:56;;;;;;;2.60;0.87;;;;;;;13.56;66.28;98018.88;5050841;28;20457;-73
2023/01/05 07:52:22;;;;;;;3.50;1.03;;;;;;;13.56;65.56;98021.50;5051866;28;20274;-71
2023/01/05 07:54:47;;;;;;;2.30;1.10;;;;;;;13.55;65.55;98017.22;5053008;28;20616;-72
2023/01/05 07:57:13;;;;;;;6.07;1.70;;;;;;;13.55;65.86;98027.75;5037711;28;20709;-72
2023/01/05 07:59:38;;;;;;;2.53;1.10;;;;;;;13.54;66.01;98031.34;5042520;28;20187;-72
2023/01/05 08:02:04;;;;;;;3.83;1.17;;;;;;;13.58;66.00;98032.72;5046958;28;20709;-73
2023/01/05 08:04:29;;;;;;;4.00;1.13;;;;;;;13.59;65.88;98030.91;5042708;28;20250;-74
2023/01/05 08:06:55;;;;;;;5.83;2.10;;;;;;;13.60;65.61;98036.03;5049437;28;20670;-72
2023/01/05 08:12:04;;;;;;;8.83;1.40;;;;;;;13.57;65.26;98036.31;5050333;28;20202;-75
2023/01/05 08:14:30;;;;;;;1.67;0.90;;;;;;;13.59;65.30;98042.28;5046372;28;20417;-73
2023/01/05 08:16:55;;;;;;;2.33;1.10;;;;;;;13.58;65.01;98056.41;5049010;28;20182;-73
2023/01/05 08:19:21;;;;;;;1.67;0.80;;;;;;;13.60;65.01;98062.38;5043446;28;20297;-75
2023/01/05 08:21:46;;;;;;;2.73;1.00;;;;;;;13.58;64.81;98051.16;5045674;28;21437;-74
2023/01/05 08:24:12;;;;;;;4.33;1.30;;;;;;;13.61;64.21;98064.00;5049348;28;20179;-73
2023/01/05 08:26:37;;;;;;;3.80;1.10;;;;;;;13.59;64.24;98063.34;5046520;28;20265;-74
2023/01/05 08:29:03;;;;;;;4.03;0.97;;;;;;;13.57;63.74;98057.41;5049420;28;20196;-74
2023/01/05 08:31:29;;;;;;;3.03;1.10;;;;;;;13.59;63.65;98067.78;5046030;28;20229;-74
2023/01/05 08:33:57;;;;;;;5.67;1.20;;;;;;;13.58;63.68;98074.84;5049632;28;20218;-74
2023/01/05 08:36:23;;;;;;;2.40;1.40;;;;;;;13.58;63.62;98074.84;5043798;28;20651;-73
2023/01/05 08:38:52;;;;;;;4.33;1.17;;;;;;;13.57;63.43;98082.88;5046322;28;20529;-73
2023/01/05 08:41:27;;;;;;;7.00;1.30;;;;;;;13.57;63.64;98072.34;5049839;28;20225;-74
2023/01/05 08:43:54;;;;;;;3.10;1.00;;;;;;;13.54;62.93;98085.84;5049205;28;20416;-73
2023/01/05 08:46:22;;;;;;;5.63;1.43;;;;;;;13.57;62.79;98089.00;5048752;28;20432;-74
2023/01/05 08:48:52;;;;;;;6.90;1.47;;;;;;;13.58;62.93;98090.66;5046896;28;20449;-73
2023/01/05 08:51:18;;;;;;;2.53;1.30;;;;;;;13.59;62.87;98094.09;5042623;28;20426;-73
2023/01/05 08:53:44;;;;;;;3.23;1.27;;;;;;;13.59;62.82;98088.84;5041234;28;20484;-71
2023/01/05 08:56:09;;;;;;;5.20;1.20;;;;;;;13.63;62.49;98087.56;5045686;28;20418;-72
2023/01/05 08:58:38;;;;;;;11.60;1.63;;;;;;;13.58;62.00;98095.09;5050191;28;20418;-73
2023/01/05 09:01:08;;;;;;;4.90;1.57;;;;;;;13.57;61.62;98096.91;5041139;28;20279;-72
2023/01/05 09:03:34;;;;;;;4.00;1.43;;;;;;;13.55;61.30;98087.47;5037059;28;20549;-73
2023/01/05 09:06:02;;;;;;;8.33;1.57;;;;;;;13.57;61.36;98104.81;5048860;28;20425;-73
2023/01/05 09:08:32;;;;;;;3.97;1.30;;;;;;;13.58;60.88;98100.34;5044618;28;20203;-72
2023/01/05 09:11:12;;;;;;;4.43;1.33;;;;;;;13.62;61.01;98102.53;5055608;28;20475;-73
2023/01/05 09:13:39;;;;;;;7.97;1.67;;;;;;;13.59;59.99;98110.75;5044908;28;20433;-72
2023/01/05 09:16:07;;;;;;;10.00;1.60;;;;;;;13.63;60.01;98117.38;5051888;28;20777;-73
2023/01/05 09:18:32;;;;;;;6.63;1.67;;;;;;;13.61;60.06;98119.31;5047877;28;20427;-74
2023/01/05 09:20:58;;;;;;;4.63;1.30;;;;;;;13.62;59.88;98123.59;5051809;28;20929;-72
2023/01/05 09:23:23;;;;;;;8.33;1.97;;;;;;;13.61;59.58;98127.22;5051079;28;20199;-72
2023/01/05 09:25:48;;;;;;;7.70;1.50;;;;;;;13.63;59.29;98129.72;5050943;28;20179;-73
2023/01/05 09:28:14;;;;;;;8.53;2.00;;;;;;;13.65;59.26;98135.66;5050569;28;20239;-73
2023/01/05 09:30:39;;;;;;;8.80;1.60;;;;;;;13.66;58.99;98137.31;5050829;28;20864;-71
2023/01/05 09:33:05;;;;;;;8.90;1.90;;;;;;;13.67;58.86;98142.44;5051140;28;20282;-73
2023/01/05 09:35:30;;;;;;;15.20;2.53;;;;;;;13.69;58.57;98138.81;5050662;28;20254;-72
2023/01/05 09:37:56;;;;;;;9.73;2.30;;;;;;;13.70;58.33;98140.50;5050697;28;20375;-72
2023/01/05 09:40:22;;;;;;;12.30;2.40;;;;;;;13.67;58.30;98131.91;5053417;28;20227;-73
2023/01/05 09:42:48;;;;;;;10.97;2.03;;;;;;;13.71;57.30;98134.25;5051474;28;20473;-74
2023/01/05 09:45:22;;;;;;;13.07;2.00;;;;;;;13.74;57.01;98139.19;5046017;28;20246;-73
2023/01/05 09:47:48;;;;;;;10.13;2.10;;;;;;;13.76;56.77;98139.88;5040849;28;20212;-73
2023/01/05 09:50:19;;;;;;;7.23;2.00;;;;;;;13.76;56.18;98137.25;5059282;28;20465;-73
2023/01/05 09:52:45;;;;;;;10.30;2.30;;;;;;;13.77;56.01;98137.09;5049401;28;20816;-73
2023/01/05 09:55:16;;;;;;;11.37;2.50;;;;;;;13.81;55.64;98138.44;5049271;28;20422;-73
2023/01/05 09:57:44;;;;;;;9.70;2.37;;;;;;;13.87;55.73;98141.47;5033376;28;20175;-72
2023/01/05 10:00:14;;;;;;;12.47;2.33;;;;;;;13.94;56.10;98153.91;5053733;28;20425;-73
2023/01/05 10:02:47;;;;;;;13.07;2.70;;;;;;;13.95;56.08;98150.28;5060916;28;20923;-72
2023/01/05 10:05:13;;;;;;;7.37;2.03;;;;;;;13.95;55.51;98145.00;5054111;28;20434;-72
2023/01/05 10:07:52;;;;;;;12.17;2.13;;;;;;;14.06;55.40;98143.13;5054387;28;20966;-72
2023/01/05 10:10:42;;;;;;;15.97;2.87;;;;;;;14.11;55.22;98149.59;5056102;28;20486;-72
2023/01/05 10:13:18;;;;;;;8.47;2.33;;;;;;;14.17;55.42;98148.16;5053649;28;20485;-72
2023/01/05 10:15:48;;;;;;;13.73;2.07;;;;;;;14.21;54.93;98146.88;5050447;28;21315;-72
2023/01/05 10:18:16;;;;;;;9.10;2.27;;;;;;;14.21;54.12;98144.25;5058754;28;20420;-71
2023/01/05 10:21:06;;;;;;;12.23;2.70;;;;;;;14.24;54.08;98143.91;5063738;28;20433;-71
2023/01/05 10:23:53;;;;;;;10.20;2.33;;;;;;;14.26;53.74;98146.41;5047342;28;20446;-72
2023/01/05 10:26:29;;;;;;;9.80;2.10;;;;;;;14.17;53.58;98148.16;5057446;28;20512;-71
2023/01/05 10:29:09;;;;;;;10.80;2.20;;;;;;;14.24;53.19;98137.81;5053668;28;20468;-72
2023/01/05 10:31:46;;;;;;;9.60;2.67;;;;;;;14.29;53.21;98141.66;5057999;28;20453;-72
2023/01/05 10:34:22;;;;;;;11.50;2.30;;;;;;;14.32;53.15;98144.97;5053643;28;20433;-72
2023/01/05 10:36:48;;;;;;;12.00;2.30;;;;;;;14.35;52.67;98134.13;5042895;28;20462;-71
2023/01/05 10:39:25;;;;;;;14.93;2.20;;;;;;;14.33;52.38;98131.63;5049053;28;20450;-71
2023/01/05 10:42:15;;;;;;;8.90;2.00;;;;;;;14.36;52.01;98138.44;5053313;28;20207;-71
2023/01/05 10:44:45;;;;;;;14.93;3.30;;;;;;;14.42;52.19;98132.53;5048705;28;20802;-72
2023/01/05 10:47:11;;;;;;;8.57;2.40;;;;;;;14.52;52.01;98137.72;5039671;28;20422;-72
2023/01/05 10:49:37;;;;;;;10.63;2.03;;;;;;;14.58;51.90;98140.56;5051841;28;20480;-71
2023/01/05 10:52:03;;;;;;;12.57;1.90;;;;;;;14.65;51.42;98135.50;5045724;28;20217;-71
2023/01/05 10:54:35;;;;;;;8.93;2.57;;;;;;;14.71;51.44;98147.25;5046467;28;20438;-72
2023/01/05 10:57:29;;;;;;;7.33;2.00;;;;;;;14.78;51.67;98139.53;5053796;28;20179;-71
2023/01/05 10:59:58;;;;;;;13.27;2.77;;;;;;;14.74;51.67;98134.56;5057492;28;20417;-71
2023/01/05 11:02:27;;;;;;;10.00;1.80;;;;;;;14.76;52.05;98129.13;5061762;28;20497;-71
2023/01/05 11:04:54;;;;;;;10.90;2.20;;;;;;;14.74;51.68;98133.75;5060511;28;20433;-71
2023/01/05 11:07:20;;;;;;;9.07;2.23;;;;;;;14.71;51.21;98136.69;5057669;28;20487;-71
2023/01/05 11:09:47;;;;;;;12.70;2.57;;;;;;;14.73;51.27;98129.47;5062800;28;21195;-72
2023/01/05 11:12:19;;;;;;;8.83;1.60;;;;;;;14.71;51.58;98134.06;5057511;28;20507;-72
2023/01/05 11:14:49;;;;;;;7.10;1.63;;;;;;;14.70;51.49;98135.84;5048780;28;20512;-71
2023/01/05 11:17:20;;;;;;;11.07;2.17;;;;;;;14.68;51.35;98137.81;5055137;28;20524;-72
2023/01/05 11:19:48;;;;;;;9.27;2.30;;;;;;;14.67;51.55;98140.59;5071564;28;20425;-71
2023/01/05 11:22:33;;;;;;;11.00;2.03;;;;;;;14.67;51.39;98143.22;5056219;28;20453;-71
2023/01/05 11:25:28;;;;;;;9.80;1.70;;;;;;;14.65;51.62;98150.47;5051831;28;20426;-72
2023/01/05 11:28:11;;;;;;;9.67;2.00;;;;;;;14.63;51.72;98148.00;5057425;28;20544;-71
2023/01/05 11:30:44;;;;;;;9.43;2.30;;;;;;;14.60;51.57;98145.66;5059074;28;20417;-73
2023/01/05 11:33:30;;;;;;;10.07;2.43;;;;;;;14.60;51.21;98150.94;5044467;28;20453;-72
2023/01/05 11:35:56;;;;;;;9.33;2.60;;;;;;;14.60;51.23;98143.03;5051031;28;20418;-72
2023/01/05 11:38:31;;;;;;;9.60;2.27;;;;;;;14.57;51.08;98135.41;5050122;28;20426;-73
2023/01/05 11:40:58;;;;;;;6.60;2.40;;;;;;;14.59;51.14;98136.94;5055924;28;20417;-72
2023/01/05 11:43:25;;;;;;;8.93;2.73;;;;;;;14.59;50.78;98142.22;5053750;28;20452;-72
2023/01/05 11:45:53;;;;;;;5.90;1.80;;;;;;;14.65;51.03;98134.63;5048188;28;20947;-72
2023/01/05 11:48:22;;;;;;;6.23;2.00;;;;;;;14.64;50.98;98143.53;5061420;28;20936;-73
2023/01/05 11:50:55;;;;;;;6.17;2.17;;;;;;;14.67;50.85;98140.59;5052066;28;20424;-72
2023/01/05 11:53:32;;;;;;;8.63;1.90;;;;;;;14.64;50.55;98140.91;5052221;28;20445;-73
2023/01/05 11:56:12;;;;;;;8.50;2.50;;;;;;;14.59;50.51;98138.72;5052578;28;20818;-72
2023/01/05 11:58:43;;;;;;;11.60;2.53;;;;;;;14.62;50.34;98130.50;5049587;28;20422;-72
2023/01/05 12:01:33;;;;;;;6.53;2.13;;;;;;;14.66;50.32;98139.78;5053676;28;20924;-72
2023/01/05 12:04:11;;;;;;;10.23;2.13;;;;;;;14.65;50.29;98138.13;5055937;28;20928;-72
2023/01/05 12:07:01;;;;;;;9.80;2.37;;;;;;;14.67;50.31;98137.94;5050808;28;20435;-72
2023/01/05 12:09:31;;;;;;;9.67;2.20;;;;;;;14.70;50.13;98138.50;5051575;28;20937;-73